• Join FlightAware (Why Join?)
  • Login
  • US Flag 
06:18AM EDT


 

Airport Tracker/Info


-or-


 

Live Flight TrackerFlight Track Log ✈ AAY894 ✈ 09-Mar-2014 ✈ KPIE - KIAG

Flight Track Log - Related Links

Times and Time Zones

All times are in EDT time to prevent confusion due to time zone crossing. See the AAY894 flight status page for this flight to view local times or setup timezone preferences in your user account.

Time Position Orientation Groundspeed Altitude Reporting Facility
EDT Latitude Longitude Course Direction KTS MPH feet Rate Location/Type
08:24AM 27.9333 -82.7000 North 179 206 1,000  Level Tampa TRACON
08:25AM 27.9500 -82.7000 360° North 170 196 1,400 1,620 Climbing Tampa TRACON
08:26AM 28.0392 -82.6433 29° Northeast 245 282 4,400 2,040 Climbing Jacksonville Center
08:27AM 28.1142 -82.6150 18° North 257 296 7,100 2,520 Climbing Jacksonville Center
08:28AM 28.1914 -82.5911 15° North 277 319 9,500 2,100 Climbing Jacksonville Center
08:29AM 28.2769 -82.5839 North 291 335 11,300 1,560 Climbing Jacksonville Center
08:30AM 28.5863 -82.6500 North  Level FlightAware Approximate
08:30AM 28.3792 -82.5764 North 328 377 12,700  Level Jacksonville Center
08:31AM 28.4917 -82.5714 North 369 425 14,900 2,100 Climbing Jacksonville Center
08:32AM 28.6025 -82.5758 358° North 390 449 16,900 1,860 Climbing Jacksonville Center
08:33AM 28.7297 -82.5847 356° North 408 470 18,700 1,740 Climbing Jacksonville Center
08:34AM 28.8383 -82.5917 357° North 427 491 20,400 1,560 Climbing Jacksonville Center
08:35AM 28.9614 -82.5983 357° North 432 497 21,900 1,500 Climbing Jacksonville Center
08:36AM 29.0844 -82.6028 358° North 442 509 23,500 1,320 Climbing Jacksonville Center
08:37AM 29.2139 -82.6094 357° North 442 509 24,600 1,380 Climbing Jacksonville Center
08:38AM 29.3414 -82.6186 356° North 452 520 26,300 1,500 Climbing Jacksonville Center
08:39AM 29.4667 -82.6253 357° North 452 520 27,600 1,320 Climbing Jacksonville Center
08:40AM 29.5961 -82.6297 358° North 457 526 29,000 1,200 Climbing Jacksonville Center
08:41AM 29.7233 -82.6392 356° North 457 526 30,100 1,080 Climbing Jacksonville Center
08:42AM 29.8592 -82.6508 356° North 449 517 31,200 900 Climbing Jacksonville Center
08:43AM 29.9867 -82.6575 357° North 449 517 32,000 720 Climbing Jacksonville Center
08:44AM 30.0972 -82.6597 359° North 444 511 32,700 420 Climbing Jacksonville Center
08:45AM 30.2225 -82.6667 357° North 444 511 32,900 120 Climbing Jacksonville Center
08:46AM 30.3456 -82.6736 357° North 439 505 33,000  Climbing Jacksonville Center
08:47AM 30.4667 -82.6806 357° North 439 505 32,900  Descending Jacksonville Center
08:48AM 30.6044 -82.6706 North 439 505 33,000  Climbing Jacksonville Center
08:49AM 30.7319 -82.6483 North 444 511 32,900 -60 Descending Jacksonville Center
08:50AM 30.8592 -82.6289 North 449 517 32,900  Level Jacksonville Center
08:51AM 30.9867 -82.6067 North 454 522 33,000  Climbing Jacksonville Center
08:52AM 31.0992 -82.5869 North 454 522 32,900  Descending Jacksonville Center
08:53AM 31.2267 -82.5647 North 454 522 33,000  Climbing Jacksonville Center
08:54AM 31.3683 -82.5372 North 460 529 33,000  Level Jacksonville Center
08:57AM 31.6514 -82.4897 North 446 513 33,000  Level Atlanta Center
08:58AM 31.7761 -82.4681 North 446 513 33,000  Level Atlanta Center
08:59AM 31.9011 -82.4486 North 446 513 33,000  Level Atlanta Center
09:00AM 32.0261 -82.4294 North 446 513 33,000  Level Atlanta Center
09:01AM 32.1511 -82.4000 11° North 446 513 33,000  Level Atlanta Center
09:02AM 32.2633 -82.3711 12° North 446 513 33,000  Level Atlanta Center
09:03AM 32.3883 -82.3442 10° North 446 513 33,000  Level Atlanta Center
09:04AM 32.5131 -82.3169 10° North 446 513 33,000  Level Atlanta Center
09:05AM 32.6358 -82.2900 10° North 446 513 33,000  Level Atlanta Center
09:06AM 32.7753 -82.2550 12° North 456 525 33,000  Level Atlanta Center
09:07AM 32.8981 -82.2303 10° North 451 519 33,000  Level Atlanta Center
09:08AM 33.0208 -82.2006 11° North 446 513 33,000  Level Atlanta Center
09:09AM 33.1456 -82.1731 10° North 451 519 33,000  Level Atlanta Center
09:10AM 33.2683 -82.1431 12° North 451 519 33,000  Level Atlanta Center
09:11AM 33.3908 -82.1156 11° North 451 519 33,000  Level Atlanta Center
09:12AM 33.5158 -82.0878 10° North 451 519 33,000  Level Atlanta Center
09:13AM 33.6383 -82.0600 11° North 446 513 33,000  Level Atlanta Center
09:14AM 33.7611 -82.0300 11° North 446 513 33,000  Level Atlanta Center
09:15AM 33.8756 -82.0022 11° North 452 520 33,000  Level Atlanta Center
09:16AM 33.9961 -81.9767 10° North 452 520 33,000  Level Atlanta Center
09:17AM 34.1208 -81.9411 13° North 452 520 33,000  Level Atlanta Center
09:18AM 34.2433 -81.9053 14° North 452 520 33,000  Level Atlanta Center
09:19AM 34.3656 -81.8669 15° North 452 520 33,000  Level Atlanta Center
09:20AM 34.4883 -81.8336 13° North 452 520 33,000  Level Atlanta Center
09:21AM 34.6128 -81.7950 14° North 452 520 33,000  Level Atlanta Center
09:22AM 34.7500 -81.7636 11° North 452 520 33,000  Level Atlanta Center
09:23AM 34.8681 -81.7222 16° North 446 513 33,000  Level Atlanta Center
09:24AM 34.9906 -81.6886 13° North 446 513 33,000  Level Atlanta Center
09:25AM 35.1131 -81.6519 14° North 446 513 33,000  Level Atlanta Center
09:26AM 35.2311 -81.6156 14° North 446 513 33,000  Level Atlanta Center
09:27AM 35.3536 -81.5789 14° North 446 513 33,000  Level Atlanta Center
09:28AM 35.4758 -81.5419 14° North 446 513 33,000  Level Atlanta Center
09:29AM 35.5942 -81.5078 13° North 446 513 33,000  Level Atlanta Center
09:30AM 35.7142 -81.4683 15° North 446 513 33,000  Level Atlanta Center
09:31AM 35.8325 -81.4314 14° North 446 513 33,000  Level Atlanta Center
09:32AM 35.9403 -81.3997 13° North 446 513 33,000  Level Atlanta Center
09:33AM 36.0583 -81.3625 14° North 440 506 33,000  Level Atlanta Center
09:34AM 36.1764 -81.3250 14° North 435 501 33,000  Level Atlanta Center
09:35AM 36.2922 -81.2875 15° North 430 495 33,000  Level Atlanta Center
09:36AM 36.4125 -81.2500 14° North 430 495 33,000  Level Atlanta Center
09:37AM 36.5283 -81.2125 15° North 430 495 33,000  Level Atlanta Center
09:38AM 36.6464 -81.1797 13° North 430 495 33,000  Level Atlanta Center
09:39AM 36.7622 -81.1392 16° North 430 495 33,000  Level Atlanta Center
09:40AM 36.8761 -81.1067 13° North 424 488 33,000  Level Atlanta Center
09:42AM 37.1400 -81.0250 14° North 439 505 33,000  Level Indianapolis Center
09:43AM 37.2533 -80.9878 15° North 438 504 33,000  Level Indianapolis Center
09:44AM 37.3681 -80.9483 15° North 437 503 33,000  Level Indianapolis Center
09:45AM 37.5053 -80.9172 10° North 431 496 33,000  Level Indianapolis Center
09:46AM 37.6211 -80.8939 North 428 493 33,000  Level Indianapolis Center
09:47AM 37.7367 -80.8714 North 428 493 33,000  Level Indianapolis Center
09:48AM 37.8653 -80.8433 10° North 428 493 33,000  Level Indianapolis Center
09:49AM 37.9831 -80.8194 North 427 491 33,000  Level Indianapolis Center
09:50AM 38.1003 -80.7944 10° North 427 491 33,000  Level Indianapolis Center
09:51AM 38.2197 -80.7703 North 428 493 33,000  Level Indianapolis Center
09:52AM 38.3397 -80.7458 North 433 498 33,000  Level Indianapolis Center
09:53AM 38.4575 -80.7206 10° North 433 498 33,000  Level Indianapolis Center
09:54AM 38.5764 -80.6967 North 433 498 33,000  Level Indianapolis Center
09:55AM 38.7167 -80.6656 10° North 432 497 33,000  Level Indianapolis Center
09:56AM 38.8333 -80.6411 North 430 495 33,000  Level Indianapolis Center
09:57AM 38.9514 -80.6153 10° North 430 495 33,000  Level Indianapolis Center
09:58AM 39.0689 -80.5908 North 430 495 33,000  Level Indianapolis Center
09:59AM 39.1856 -80.5667 North 428 493 33,000  Level Indianapolis Center
10:00AM 39.3008 -80.5422 North 425 489 33,000  Level Indianapolis Center
10:01AM 39.4169 -80.5175 North 421 484 33,000  Level Indianapolis Center
10:02AM 39.5306 -80.4781 15° North 422 486 33,000  Level Indianapolis Center
10:03AM 39.6664 -80.4228 17° North 423 487 33,000  Level Indianapolis Center
10:04AM 39.7800 -80.3789 17° North 424 488 33,000  Level Indianapolis Center
10:05AM 39.8933 -80.3344 17° North 424 488 33,000  Level Indianapolis Center
10:06AM 40.0058 -80.2894 17° North 424 488 33,000  Level Indianapolis Center
10:07AM 40.1178 -80.2447 17° North 423 487 33,000  Level Indianapolis Center
10:09AM 40.2575 -80.1900 17° North 421 484 33,000 -1,020 Level Cleveland Center
10:10AM 40.3850 -80.1397 17° North 419 482 30,700 -1,500 Descending Cleveland Center
10:11AM 40.4914 -80.0961 17° North 410 472 30,000 -360 Descending Cleveland Center
10:12AM 40.5953 -80.0547 17° North 396 456 30,000  Level Cleveland Center
10:13AM 40.7006 -80.0136 16° North 396 456 30,000  Level Cleveland Center
10:14AM 40.8000 -79.9739 17° North 396 456 30,000  Level Cleveland Center
10:15AM 40.9042 -79.9322 17° North 392 451 30,000 -1,080 Level Cleveland Center
10:16AM 41.0278 -79.8817 17° North 390 449 27,900 -1,500 Descending Cleveland Center
10:17AM 41.1397 -79.8369 17° North 396 456 27,000 -480 Descending Cleveland Center
10:18AM 41.2464 -79.7936 17° North 399 459 27,000  Level Cleveland Center
10:19AM 41.3531 -79.7489 17° North 400 460 27,000 -600 Level Cleveland Center
10:20AM 41.4589 -79.7033 18° North 400 460 25,800 -1,440 Descending Cleveland Center
10:21AM 41.5653 -79.6594 17° North 400 460 24,100 -900 Descending Cleveland Center
10:22AM 41.6719 -79.6156 17° North 400 460 24,000 -480 Descending Cleveland Center
10:23AM 41.7758 -79.5719 17° North 399 459 23,200 -840 Descending Cleveland Center
10:24AM 41.8708 -79.5322 17° North 365 420 22,400 -1,200 Descending Cleveland Center
10:25AM 41.9794 -79.4944 14° North 338 389 20,800 -1,620 Descending Cleveland Center
10:26AM 42.0675 -79.4975 359° North 321 369 19,100 -1,500 Descending Cleveland Center
10:27AM 42.1569 -79.4978 360° North 323 372 17,800 -1,140 Descending Cleveland Center
10:28AM 42.2442 -79.4972 360° North 315 362 16,800 -1,140 Descending Cleveland Center
10:29AM 42.3281 -79.4992 359° North 306 352 15,500 -1,260 Descending Cleveland Center
10:30AM 42.4103 -79.4767 11° North 305 351 14,200 -1,260 Descending Cleveland Center
10:31AM 42.4906 -79.3992 35° Northeast 320 368 13,000 -1,320 Descending Cleveland Center
10:32AM 42.5564 -79.3236 40° Northeast 316 364 11,600 -1,440 Descending Cleveland Center
10:33AM 42.6214 -79.2539 38° Northeast 300 345 10,100 -1,380 Descending Cleveland Center
10:34AM 42.6883 -79.1772 40° Northeast 280 322 8,800 -1,320 Descending Cleveland Center
10:35AM 42.7431 -79.1161 39° Northeast 267 307 7,400 -1,440 Descending Cleveland Center
10:36AM 42.8056 -79.0503 38° Northeast 268 308 5,900 -1,200 Descending Cleveland Center
10:37AM 42.8675 -78.9892 36° Northeast 266 306 5,000 -600 Descending Cleveland Center
10:39AM 42.9256 -78.9303 37° Northeast 255 293 4,700 -900 Descending Cleveland Center
10:40AM 42.9781 -78.8600 44° Northeast 254 292 3,200 -1,320 Descending Cleveland Center
10:40AM 43.0000 -78.8167 55° Northeast 250 288 2,600 -600 Descending Buffalo TRACON
10:41AM 43.0667 -78.7833 20° North 201 231 2,300 -300 Descending Buffalo TRACON
10:42AM 43.1000 -78.7833 360° North 147 169 2,100 -300 Descending Buffalo TRACON
10:43AM 43.1167 -78.8333 295° West 130 150 1,800 -480 Descending Buffalo TRACON
10:44AM 43.1167 -78.8833 270° West 121 139 1,200 -600 Descending Buffalo TRACON